Time;durP1;ratioP1;P1;durP2;ratioP2;P2;SDS_P1;SDS_P2;PMS_P1;PMS_P2;Temp;Humidity;BMP_temperature;BMP_pressure;BME280_temperature;BME280_humidity;BME280_pressure;Samples;Min_cycle;Max_cycle;Signal;HPM_P1;HPM_P2
2022/03/03 00:00:33;;;;;;;;;;;8.00;99.90;;;;;;4924556;29;19933;-83
2022/03/03 00:04:17;;;;;;;;;;;7.80;99.90;;;;;;4932212;29;19927;-83
2022/03/03 00:07:50;;;;;;;;;;;7.70;99.90;;;;;;4903005;29;19927;-83
2022/03/03 00:11:30;;;;;;;;;;;7.80;99.90;;;;;;4926149;29;20256;-82
2022/03/03 00:15:34;;;;;;;;;;;8.50;99.90;;;;;;5013006;28;19957;-81
2022/03/03 00:19:19;;;;;;;;;;;;;;;;;;;;;
2022/03/03 00:22:49;;;;;;;;;;;8.00;99.90;;;;;;4960265;29;19936;-82
2022/03/03 00:30:11;;;;;;;;;;;;;;;;;;;;;
2022/03/03 00:33:46;;;;;;;;;;;7.60;99.90;;;;;;5006877;28;19932;-84
2022/03/03 00:37:03;;;;;;;;;;;8.00;99.90;;;;;;5012557;28;19940;-83
2022/03/03 00:40:06;;;;;;;;;;;7.50;99.90;;;;;;4948705;29;19927;-84
2022/03/03 00:43:47;;;;;;;;;;;9.10;99.90;;;;;;4574321;28;10000590;-83
2022/03/03 00:47:54;;;;;;;;;;;7.90;99.90;;;;;;5005465;28;20016;-83
2022/03/03 00:50:38;;;;;;;;;;;8.00;99.90;;;;;;5039200;28;19929;-83
2022/03/03 00:54:10;;;;;;;;;;;7.40;99.90;;;;;;4969921;28;19926;-83
2022/03/03 01:04:43;;;;;;;;;;;7.00;99.90;;;;;;5040946;28;19935;-83
2022/03/03 01:15:53;;;;;;;;;;;7.90;99.90;;;;;;4974880;28;19932;-83
2022/03/03 01:19:32;;;;;;;;;;;7.40;99.90;;;;;;5039027;28;19935;-82
2022/03/03 01:26:33;;;;;;;;;;;7.50;99.90;;;;;;5015719;28;19925;-84
2022/03/03 01:29:35;;;;;;;;;;;7.30;99.90;;;;;;5110133;28;19928;-82
2022/03/03 01:33:15;;;;;;;;;;;;;;;;;;;;;
2022/03/03 01:36:20;;;;;;;;;;;;;;;;;;;;;
2022/03/03 01:39:35;;;;;;;;;;;7.30;99.90;;;;;;4991963;28;20033;-84
2022/03/03 01:42:42;;;;;;;;;;;7.30;99.90;;;;;;4994347;28;20048;-85
2022/03/03 01:46:15;;;;;;;;;;;7.20;99.90;;;;;;5013090;28;19929;-84
2022/03/03 01:53:40;;;;;;;;;;;7.70;99.90;;;;;;5079141;28;19924;-84
2022/03/03 01:56:46;;;;;;;;;;;7.60;99.90;;;;;;5073393;28;20238;-84
2022/03/03 02:03:01;;;;;;;;;;;7.50;99.90;;;;;;5092210;27;19938;-83
2022/03/03 02:06:18;;;;;;;;;;;6.50;99.90;;;;;;5121730;27;19935;-81
2022/03/03 02:09:38;;;;;;;;;;;8.20;99.90;;;;;;5108334;28;19932;-83
2022/03/03 02:12:26;;;;;;;;;;;;;;;;;;;;;
2022/03/03 02:19:58;;;;;;;;;;;7.60;99.90;;;;;;5059100;28;19934;-82
2022/03/03 02:23:21;;;;;;;;;;;7.70;99.90;;;;;;5102052;28;19924;-83
2022/03/03 02:26:50;;;;;;;;;;;7.60;99.90;;;;;;5109017;28;19935;-80
2022/03/03 02:30:14;;;;;;;;;;;;;;;;;;;;;
2022/03/03 02:38:06;;;;;;;;;;;;;;;;;;;;;
2022/03/03 02:41:26;;;;;;;;;;;7.10;99.90;;;;;;5087161;28;19924;-83
2022/03/03 02:44:37;;;;;;;;;;;7.50;99.90;;;;;;5109405;28;19924;-82
2022/03/03 02:47:37;;;;;;;;;;;;;;;;;;;;;
2022/03/03 02:51:18;;;;;;;;;;;;;;;;;;;;;
2022/03/03 02:54:32;;;;;;;;;;;8.30;99.90;;;;;;5058868;28;19924;-83
2022/03/03 02:58:12;;;;;;;;;;;;;;;;;;;;;
2022/03/03 03:01:37;;;;;;;;;;;;;;;;;;;;;
2022/03/03 03:05:03;;;;;;;;;;;7.60;99.90;;;;;;4965442;28;19930;-85
2022/03/03 03:09:13;;;;;;;;;;;;;;;;;;;;;
2022/03/03 03:11:58;;;;;;;;;;;7.60;99.90;;;;;;4894285;29;19938;-84
2022/03/03 03:15:41;;;;;;;;;;;7.50;99.90;;;;;;4883802;29;19931;-84
2022/03/03 03:22:27;;;;;;;;;;;7.70;99.90;;;;;;4894836;29;19922;-83
2022/03/03 03:25:51;;;;;;;;;;;7.60;99.90;;;;;;4905739;29;19927;-81
2022/03/03 03:29:41;;;;;;;;;;;7.60;99.90;;;;;;4886821;29;19927;-82
2022/03/03 03:39:52;;;;;;;;;;;7.30;99.90;;;;;;5002242;28;19926;-82
2022/03/03 03:43:46;;;;;;;;;;;;;;;;;;;;;
2022/03/03 03:47:12;;;;;;;;;;;;;;;;;;;;;
2022/03/03 03:50:52;;;;;;;;;;;7.10;99.90;;;;;;5009216;28;20643;-84
2022/03/03 03:54:16;;;;;;;;;;;7.10;99.90;;;;;;5035194;28;20318;-84
2022/03/03 04:01:08;;;;;;;;;;;7.30;99.90;;;;;;4945089;29;19931;-84
2022/03/03 04:04:02;;;;;;;;;;;;;;;;;;;;;
2022/03/03 04:08:30;;;;;;;;;;;7.10;99.90;;;;;;4937217;29;19927;-84
2022/03/03 04:11:07;;;;;;;;;;;6.90;99.90;;;;;;4923775;29;19918;-83
2022/03/03 04:14:14;;;;;;;;;;;7.40;99.90;;;;;;4997892;28;19936;-83
2022/03/03 04:17:20;;;;;;;;;;;6.00;99.90;;;;;;5013465;28;19940;-84
2022/03/03 04:20:22;;;;;;;;;;;7.80;99.90;;;;;;5015090;28;19936;-83
2022/03/03 04:23:22;;;;;;;;;;;;;;;;;;;;;
2022/03/03 04:27:22;;;;;;;;;;;;;;;;;;;;;
2022/03/03 04:30:25;;;;;;;;;;;6.80;99.90;;;;;;5078015;28;19924;-83
2022/03/03 04:33:32;;;;;;;;;;;6.80;99.90;;;;;;5095181;28;19924;-84
2022/03/03 04:36:11;;;;;;;;;;;6.80;99.90;;;;;;5113893;28;19927;-83
2022/03/03 04:39:58;;;;;;;;;;;6.80;99.90;;;;;;5006481;28;19917;-84
2022/03/03 04:43:02;;;;;;;;;;;;;;;;;;;;;
2022/03/03 04:46:20;;;;;;;;;;;6.70;99.90;;;;;;5008587;28;19936;-83
2022/03/03 04:49:08;;;;;;;;;;;6.60;99.90;;;;;;4991580;28;19926;-83
2022/03/03 04:52:50;;;;;;;;;;;7.20;99.90;;;;;;4901442;29;20171;-83
2022/03/03 04:55:31;;;;;;;;;;;6.20;99.90;;;;;;4912588;29;19932;-83
2022/03/03 04:58:46;;;;;;;;;;;6.60;99.90;;;;;;4913050;29;19990;-83
2022/03/03 05:01:24;;;;;;;;;;;6.50;99.90;;;;;;4921647;28;19927;-85
2022/03/03 05:05:23;;;;;;;;;;;6.60;99.90;;;;;;4961232;28;19926;-82
2022/03/03 05:11:44;;;;;;;;;;;6.70;99.90;;;;;;5108047;28;19930;-84
2022/03/03 05:22:05;;;;;;;;;;;6.60;99.90;;;;;;5099062;28;19923;-83
2022/03/03 05:25:11;;;;;;;;;;;6.30;99.90;;;;;;5071164;28;19928;-84
2022/03/03 05:28:05;;;;;;;;;;;6.10;99.90;;;;;;5109738;28;19934;-82
2022/03/03 05:31:19;;;;;;;;;;;6.50;99.90;;;;;;5049593;28;19935;-84
2022/03/03 05:34:12;;;;;;;;;;;6.80;99.90;;;;;;5052183;28;21021;-83
2022/03/03 05:37:20;;;;;;;;;;;5.90;99.90;;;;;;5034330;28;19925;-83
2022/03/03 05:40:08;;;;;;;;;;;5.80;99.90;;;;;;5029947;28;19925;-84
2022/03/03 05:43:15;;;;;;;;;;;6.30;99.90;;;;;;5048539;28;20386;-83
2022/03/03 05:46:09;;;;;;;;;;;6.70;99.90;;;;;;5062757;28;19931;-82
2022/03/03 05:49:44;;;;;;;;;;;5.10;99.90;;;;;;5079369;28;19924;-83
2022/03/03 05:53:06;;;;;;;;;;;5.20;99.90;;;;;;5090881;28;19935;-83
2022/03/03 05:56:57;;;;;;;;;;;;;;;;;;;;;
2022/03/03 05:59:42;;;;;;;;;;;6.20;99.90;;;;;;5011858;28;19935;-87
2022/03/03 06:06:18;;;;;;;;;;;6.30;99.90;;;;;;5022563;28;19921;-85
2022/03/03 06:09:26;;;;;;;;;;;6.20;99.90;;;;;;4974821;28;19926;-84
2022/03/03 06:12:20;;;;;;;;;;;7.30;99.90;;;;;;5013612;28;19935;-86
2022/03/03 06:15:26;;;;;;;;;;;;;;;;;;;;;
2022/03/03 06:18:33;;;;;;;;;;;4.90;99.90;;;;;;5038868;28;19929;-82
2022/03/03 06:21:52;;;;;;;;;;;6.20;99.90;;;;;;5033586;28;19924;-84
2022/03/03 06:24:51;;;;;;;;;;;6.40;99.90;;;;;;5046884;28;20077;-84
2022/03/03 06:27:59;;;;;;;;;;;6.30;99.90;;;;;;5008419;28;19925;-83
2022/03/03 06:30:32;;;;;;;;;;;6.20;99.90;;;;;;5029574;28;19932;-84
2022/03/03 06:33:11;;;;;;;;;;;6.20;99.90;;;;;;5028643;28;19925;-84
2022/03/03 06:36:24;;;;;;;;;;;6.30;99.90;;;;;;5002485;28;19929;-83
2022/03/03 06:39:14;;;;;;;;;;;6.40;99.90;;;;;;5056917;28;19932;-85
2022/03/03 06:42:06;;;;;;;;;;;6.20;99.90;;;;;;5108709;28;19920;-83
2022/03/03 06:45:17;;;;;;;;;;;;;;;;;;;;;
2022/03/03 06:48:24;;;;;;;;;;;6.20;99.90;;;;;;5112117;28;19924;-83
2022/03/03 06:51:14;;;;;;;;;;;6.10;99.90;;;;;;5073425;28;19938;-84
2022/03/03 06:54:21;;;;;;;;;;;6.10;99.90;;;;;;5077830;28;19930;-84
2022/03/03 06:58:02;;;;;;;;;;;6.10;99.90;;;;;;5095700;28;19928;-83
2022/03/03 07:01:14;;;;;;;;;;;6.00;99.90;;;;;;5083134;28;19925;-85
2022/03/03 07:04:59;;;;;;;;;;;;;;;;;;;;;
2022/03/03 07:07:44;;;;;;;;;;;6.00;99.90;;;;;;5078128;28;20528;-83
2022/03/03 07:10:39;;;;;;;;;;;6.10;99.90;;;;;;5049995;28;19923;-84
2022/03/03 07:13:29;;;;;;;;;;;6.50;99.90;;;;;;5080589;28;20393;-84
2022/03/03 07:16:41;;;;;;;;;;;6.80;99.90;;;;;;5087853;28;19925;-85
2022/03/03 07:23:41;;;;;;;;;;;6.10;99.90;;;;;;5094335;28;19938;-83
2022/03/03 07:26:18;;;;;;;;;;;6.10;99.90;;;;;;5060433;28;19929;-82
2022/03/03 07:29:04;;;;;;;;;;;6.20;99.90;;;;;;5106470;28;19930;-82
2022/03/03 07:31:40;;;;;;;;;;;5.70;99.90;;;;;;5089387;28;19931;-82
2022/03/03 07:34:10;;;;;;;;;;;6.30;99.90;;;;;;5105535;28;19928;-82
2022/03/03 07:36:40;;;;;;;;;;;6.30;99.90;;;;;;5108256;27;19934;-81
2022/03/03 07:39:14;;;;;;;;;;;7.60;99.90;;;;;;5106588;28;19931;-81
2022/03/03 07:41:44;;;;;;;;;;;6.40;99.90;;;;;;5123619;27;19928;-84
2022/03/03 07:44:21;;;;;;;;;;;6.80;99.90;;;;;;5103328;28;19930;-81
2022/03/03 07:46:56;;;;;;;;;;;6.60;99.90;;;;;;5076790;28;19934;-83
2022/03/03 07:49:33;;;;;;;;;;;6.90;99.90;;;;;;5099465;28;19931;-79
2022/03/03 07:52:03;;;;;;;;;;;5.80;99.90;;;;;;5076339;28;19934;-80
2022/03/03 07:54:32;;;;;;;;;;;6.30;99.90;;;;;;5093882;28;19924;-78
2022/03/03 07:57:01;;;;;;;;;;;5.70;99.90;;;;;;5120163;23;19924;-88
2022/03/03 07:59:58;;;;;;;;;;;6.80;99.90;;;;;;5106520;28;19924;-91
2022/03/03 08:02:30;;;;;;;;;;;7.10;99.90;;;;;;5088383;28;19939;-92
2022/03/03 08:05:05;;;;;;;;;;;7.00;99.90;;;;;;5087557;28;19945;-91
2022/03/03 08:07:41;;;;;;;;;;;7.10;99.90;;;;;;5091386;28;19924;-88
2022/03/03 08:10:15;;;;;;;;;;;7.10;99.90;;;;;;5107094;28;20485;-90
2022/03/03 08:12:52;;;;;;;;;;;7.20;99.90;;;;;;5120573;28;19924;-88
2022/03/03 08:15:20;;;;;;;;;;;7.40;99.90;;;;;;5104890;28;19923;-87
2022/03/03 08:17:51;;;;;;;;;;;7.40;99.90;;;;;;5107451;28;19924;-91
2022/03/03 08:20:26;;;;;;;;;;;7.50;99.90;;;;;;5111924;28;19914;-93
2022/03/03 08:23:11;;;;;;;;;;;7.60;99.90;;;;;;5081123;28;19931;-93
2022/03/03 08:25:42;;;;;;;;;;;7.70;99.90;;;;;;5074316;28;19931;-92
2022/03/03 08:28:20;;;;;;;;;;;7.80;99.90;;;;;;5088086;28;19934;-93
2022/03/03 08:31:01;;;;;;;;;;;7.90;99.90;;;;;;5093751;28;19938;-93
2022/03/03 08:33:54;;;;;;;;;;;8.00;99.90;;;;;;5078245;28;19938;-94
2022/03/03 08:36:44;;;;;;;;;;;8.20;99.90;;;;;;5109807;28;19927;-92
2022/03/03 08:39:17;;;;;;;;;;;8.20;99.90;;;;;;5101582;28;19934;-92
2022/03/03 08:41:50;;;;;;;;;;;8.30;99.90;;;;;;5086272;28;19936;-93
2022/03/03 08:44:38;;;;;;;;;;;8.40;99.90;;;;;;5118311;28;19923;-92
2022/03/03 08:47:50;;;;;;;;;;;8.40;99.90;;;;;;5094235;28;19914;-93
2022/03/03 08:50:39;;;;;;;;;;;8.50;99.90;;;;;;5099493;28;19938;-91
2022/03/03 08:53:53;;;;;;;;;;;9.00;99.90;;;;;;5096161;27;19914;-92
2022/03/03 08:56:26;;;;;;;;;;;8.70;99.90;;;;;;5112707;28;19930;-93
2022/03/03 08:59:12;;;;;;;;;;;8.80;99.90;;;;;;5100670;28;19914;-93
2022/03/03 09:01:59;;;;;;;;;;;8.80;99.90;;;;;;5081946;27;19923;-92
2022/03/03 09:04:43;;;;;;;;;;;8.90;99.90;;;;;;5072110;28;19924;-93
2022/03/03 09:07:27;;;;;;;;;;;9.10;99.90;;;;;;5067338;28;19928;-92
2022/03/03 09:10:22;;;;;;;;;;;9.20;99.90;;;;;;5063909;28;20011;-82
2022/03/03 09:12:51;;;;;;;;;;;9.10;99.90;;;;;;5048227;28;19931;-82
2022/03/03 09:15:20;;;;;;;;;;;9.20;99.90;;;;;;5067503;28;19925;-82
2022/03/03 09:17:48;;;;;;;;;;;9.30;99.90;;;;;;5064309;28;19955;-82
2022/03/03 09:20:16;;;;;;;;;;;9.40;99.90;;;;;;5045129;28;19935;-82
2022/03/03 09:22:45;;;;;;;;;;;9.50;99.90;;;;;;5045716;28;19925;-83
2022/03/03 09:25:13;;;;;;;;;;;9.50;99.90;;;;;;5061645;28;19929;-83
2022/03/03 09:27:42;;;;;;;;;;;9.60;99.90;;;;;;5062597;28;19935;-82
2022/03/03 09:30:10;;;;;;;;;;;9.50;99.90;;;;;;5059531;28;19929;-82
2022/03/03 09:32:39;;;;;;;;;;;9.70;99.90;;;;;;5061820;28;19935;-82
2022/03/03 09:35:09;;;;;;;;;;;9.90;99.90;;;;;;5062258;28;19925;-82
2022/03/03 09:37:39;;;;;;;;;;;9.80;99.90;;;;;;5062352;28;20409;-81
2022/03/03 09:40:08;;;;;;;;;;;9.80;99.90;;;;;;5044259;28;19932;-82
2022/03/03 09:42:36;;;;;;;;;;;9.90;99.90;;;;;;5060826;28;19936;-82
2022/03/03 09:45:05;;;;;;;;;;;10.00;99.90;;;;;;5063124;28;19921;-82
2022/03/03 09:47:35;;;;;;;;;;;10.20;99.90;;;;;;5061823;28;19933;-82
2022/03/03 09:50:05;;;;;;;;;;;10.00;99.90;;;;;;5044022;28;19944;-82
2022/03/03 09:52:35;;;;;;;;;;;10.00;99.90;;;;;;5043876;28;20406;-81
2022/03/03 09:55:05;;;;;;;;;;;11.10;99.90;;;;;;5061917;28;20461;-79
2022/03/03 09:57:35;;;;;;;;;;;10.20;99.90;;;;;;5022273;28;19940;-80
2022/03/03 10:00:08;;;;;;;;;;;10.30;99.90;;;;;;5024607;28;19937;-80
2022/03/03 10:02:54;;;;;;;;;;;10.30;99.90;;;;;;5023819;28;19926;-84
2022/03/03 10:05:30;;;;;;;;;;;10.40;99.90;;;;;;5043401;28;19937;-82
2022/03/03 10:07:59;;;;;;;;;;;10.60;99.90;;;;;;5057517;28;19947;-81
2022/03/03 10:10:27;;;;;;;;;;;10.70;99.90;;;;;;5042142;28;19925;-81
2022/03/03 10:12:56;;;;;;;;;;;10.80;99.90;;;;;;5043898;28;19929;-82
2022/03/03 10:15:28;;;;;;;;;;;10.90;99.90;;;;;;5040882;28;19925;-81
2022/03/03 10:18:04;;;;;;;;;;;10.90;99.90;;;;;;5040791;28;19925;-80
2022/03/03 10:20:35;;;;;;;;;;;11.00;99.90;;;;;;5017270;28;19932;-83
2022/03/03 10:23:08;;;;;;;;;;;11.10;99.90;;;;;;5023542;28;19930;-83
2022/03/03 10:25:39;;;;;;;;;;;11.20;99.90;;;;;;4991481;28;19930;-82
2022/03/03 10:28:10;;;;;;;;;;;11.20;99.90;;;;;;5027018;28;19930;-82
2022/03/03 10:30:50;;;;;;;;;;;11.30;99.90;;;;;;5006904;28;19932;-82
2022/03/03 10:33:21;;;;;;;;;;;11.30;99.90;;;;;;5028041;28;19941;-82
2022/03/03 10:35:58;;;;;;;;;;;11.40;99.90;;;;;;5028338;28;19931;-81
2022/03/03 10:38:28;;;;;;;;;;;11.40;99.90;;;;;;5029293;28;20307;-81
2022/03/03 10:40:56;;;;;;;;;;;11.50;99.90;;;;;;5027262;28;19929;-80
2022/03/03 10:43:25;;;;;;;;;;;11.60;99.90;;;;;;5039906;28;20382;-81
2022/03/03 10:45:58;;;;;;;;;;;11.60;99.90;;;;;;5048747;28;19935;-81
2022/03/03 10:48:31;;;;;;;;;;;10.80;99.90;;;;;;5048796;28;19925;-82
2022/03/03 10:51:00;;;;;;;;;;;11.80;99.90;;;;;;5047395;28;19929;-82
2022/03/03 10:53:33;;;;;;;;;;;11.90;99.90;;;;;;5030678;28;19929;-81
2022/03/03 10:56:06;;;;;;;;;;;11.90;99.90;;;;;;5043358;28;19940;-81
2022/03/03 10:58:44;;;;;;;;;;;12.00;99.90;;;;;;5025625;28;19926;-82
2022/03/03 11:01:13;;;;;;;;;;;12.10;99.90;;;;;;5026020;28;19929;-82
2022/03/03 11:03:49;;;;;;;;;;;12.10;99.90;;;;;;5010790;28;19936;-82
2022/03/03 11:06:17;;;;;;;;;;;12.20;99.90;;;;;;5007006;28;19926;-81
2022/03/03 11:08:49;;;;;;;;;;;12.30;99.90;;;;;;4990970;28;19930;-81
2022/03/03 11:11:18;;;;;;;;;;;12.40;99.90;;;;;;5027236;28;19935;-81
2022/03/03 11:13:48;;;;;;;;;;;12.40;99.90;;;;;;5026617;28;20437;-83
2022/03/03 11:16:17;;;;;;;;;;;12.50;99.90;;;;;;5026919;28;19929;-83
2022/03/03 11:18:45;;;;;;;;;;;12.60;99.90;;;;;;5026853;28;20314;-82
2022/03/03 11:21:15;;;;;;;;;;;12.90;99.90;;;;;;5021983;28;19934;-82
2022/03/03 11:23:47;;;;;;;;;;;12.80;99.90;;;;;;5022886;28;19936;-83
2022/03/03 11:26:19;;;;;;;;;;;12.90;99.90;;;;;;5007468;28;19932;-82
2022/03/03 11:28:56;;;;;;;;;;;13.10;99.90;;;;;;5015334;28;19932;-81
2022/03/03 11:31:30;;;;;;;;;;;13.20;99.90;;;;;;5039565;28;19932;-82
2022/03/03 11:34:23;;;;;;;;;;;13.20;99.90;;;;;;5027637;28;20461;-83
2022/03/03 11:36:59;;;;;;;;;;;13.30;99.90;;;;;;5030415;28;19929;-83
2022/03/03 11:39:49;;;;;;;;;;;12.60;99.90;;;;;;5027834;28;19936;-85
2022/03/03 11:42:20;;;;;;;;;;;13.40;99.90;;;;;;5028689;28;19929;-86
2022/03/03 11:44:49;;;;;;;;;;;13.50;99.90;;;;;;5009604;28;19926;-83
2022/03/03 11:47:19;;;;;;;;;;;13.50;99.90;;;;;;5025232;28;19933;-83
2022/03/03 11:50:01;;;;;;;;;;;13.50;99.90;;;;;;5010690;28;19926;-83
2022/03/03 11:52:31;;;;;;;;;;;13.60;99.90;;;;;;5021793;28;19933;-81
2022/03/03 11:55:19;;;;;;;;;;;12.10;99.90;;;;;;5023614;28;19925;-82
2022/03/03 11:57:48;;;;;;;;;;;13.50;99.90;;;;;;5008047;28;19936;-83
2022/03/03 12:00:18;;;;;;;;;;;12.80;99.90;;;;;;5026497;28;20440;-85
2022/03/03 12:02:53;;;;;;;;;;;13.50;99.90;;;;;;5022970;28;19943;-83
2022/03/03 12:05:28;;;;;;;;;;;13.50;99.90;;;;;;5025512;28;19936;-81
2022/03/03 12:08:01;;;;;;;;;;;13.50;99.90;;;;;;5007612;28;19929;-82
2022/03/03 12:10:30;;;;;;;;;;;13.60;99.90;;;;;;5022539;28;19930;-81
2022/03/03 12:13:35;;;;;;;;;;;13.60;99.90;;;;;;5022055;28;19926;-83
2022/03/03 12:16:14;;;;;;;;;;;13.60;99.90;;;;;;4999202;28;20033;-83
2022/03/03 12:18:43;;;;;;;;;;;13.60;99.90;;;;;;5019325;28;19933;-82
2022/03/03 12:21:21;;;;;;;;;;;13.60;99.90;;;;;;5023508;28;19925;-84
2022/03/03 12:23:50;;;;;;;;;;;13.50;99.90;;;;;;5038062;28;19925;-83
2022/03/03 12:26:19;;;;;;;;;;;13.40;99.90;;;;;;5026777;28;19936;-83
2022/03/03 12:28:48;;;;;;;;;;;13.30;99.90;;;;;;5024583;28;19940;-84
2022/03/03 12:31:22;;;;;;;;;;;13.30;99.90;;;;;;5024134;28;19929;-83
2022/03/03 12:33:55;;;;;;;;;;;13.30;99.90;;;;;;5039365;28;19936;-83
2022/03/03 12:36:25;;;;;;;;;;;13.40;99.90;;;;;;5007208;28;19933;-83
2022/03/03 12:38:54;;;;;;;;;;;15.00;99.90;;;;;;5025868;28;19940;-83
2022/03/03 12:41:24;;;;;;;;;;;13.30;99.90;;;;;;5021487;28;19926;-83
2022/03/03 12:43:53;;;;;;;;;;;13.30;99.90;;;;;;5023188;28;19913;-84
2022/03/03 12:46:22;;;;;;;;;;;13.30;99.90;;;;;;5023436;28;19925;-83
2022/03/03 12:48:50;;;;;;;;;;;13.40;99.90;;;;;;5005332;28;20314;-84
2022/03/03 12:51:23;;;;;;;;;;;13.40;99.90;;;;;;5022599;28;19930;-83
2022/03/03 12:53:52;;;;;;;;;;;13.50;99.90;;;;;;5020696;28;19932;-83
2022/03/03 12:56:23;;;;;;;;;;;14.60;99.90;;;;;;5022432;28;19926;-84
2022/03/03 12:58:52;;;;;;;;;;;13.00;99.90;;;;;;5008158;28;19928;-83
2022/03/03 13:01:24;;;;;;;;;;;13.60;99.90;;;;;;5040333;28;19926;-83
2022/03/03 13:03:53;;;;;;;;;;;13.60;99.90;;;;;;5039733;28;19937;-83
2022/03/03 13:06:22;;;;;;;;;;;13.70;99.90;;;;;;5019399;28;19930;-81
2022/03/03 13:08:57;;;;;;;;;;;13.70;99.90;;;;;;5005617;28;19929;-81
2022/03/03 13:11:26;;;;;;;;;;;13.80;99.90;;;;;;5023058;28;19931;-83
2022/03/03 13:13:57;;;;;;;;;;;13.90;99.90;;;;;;5007034;28;19925;-82
2022/03/03 13:16:26;;;;;;;;;;;13.90;99.90;;;;;;5023303;28;19929;-83
2022/03/03 13:18:55;;;;;;;;;;;14.00;99.90;;;;;;5021544;28;19925;-82
2022/03/03 13:21:27;;;;;;;;;;;14.10;99.90;;;;;;5024776;28;19940;-83
2022/03/03 13:24:05;;;;;;;;;;;14.20;99.90;;;;;;5024663;28;19944;-84
2022/03/03 13:27:03;;;;;;;;;;;14.30;99.90;;;;;;5025300;28;19925;-87
2022/03/03 13:29:36;;;;;;;;;;;14.50;99.90;;;;;;5018660;28;19941;-80
2022/03/03 13:32:11;;;;;;;;;;;14.40;99.90;;;;;;5026591;28;19936;-80
2022/03/03 13:34:45;;;;;;;;;;;14.90;99.90;;;;;;5023631;28;19909;-84
2022/03/03 13:37:18;;;;;;;;;;;14.90;99.90;;;;;;5022215;28;19933;-84
2022/03/03 13:39:46;;;;;;;;;;;15.00;99.90;;;;;;5023370;28;19929;-81
2022/03/03 13:42:16;;;;;;;;;;;15.20;99.90;;;;;;5004267;28;19933;-82
2022/03/03 13:44:47;;;;;;;;;;;15.30;99.90;;;;;;5019839;28;19929;-81
2022/03/03 13:47:23;;;;;;;;;;;15.40;99.90;;;;;;5023754;28;19933;-85
2022/03/03 13:49:51;;;;;;;;;;;15.50;99.90;;;;;;5018495;28;19937;-80
2022/03/03 13:52:20;;;;;;;;;;;15.50;99.90;;;;;;5023910;28;19932;-82
2022/03/03 13:54:50;;;;;;;;;;;15.70;99.90;;;;;;5025177;28;19929;-83
2022/03/03 13:57:37;;;;;;;;;;;15.70;99.90;;;;;;5026461;28;19925;-81
2022/03/03 14:00:21;;;;;;;;;;;15.80;99.90;;;;;;5027637;28;19936;-80
2022/03/03 14:02:50;;;;;;;;;;;15.90;99.90;;;;;;5027118;28;19929;-83
2022/03/03 14:05:29;;;;;;;;;;;16.10;99.90;;;;;;5026532;28;19929;-80
2022/03/03 14:07:58;;;;;;;;;;;16.60;99.90;;;;;;5024795;28;19932;-81
2022/03/03 14:10:44;;;;;;;;;;;16.20;99.90;;;;;;5023214;28;19940;-81
2022/03/03 14:13:12;;;;;;;;;;;16.20;99.90;;;;;;4676968;28;10000574;-80
2022/03/03 14:15:40;;;;;;;;;;;16.20;99.90;;;;;;5025351;28;19945;-81
2022/03/03 14:18:09;;;;;;;;;;;16.10;99.90;;;;;;5024418;28;19934;-80
2022/03/03 14:20:37;;;;;;;;;;;16.10;99.90;;;;;;5024177;28;19930;-82
2022/03/03 14:23:05;;;;;;;;;;;16.00;99.90;;;;;;5025514;28;19955;-80
2022/03/03 14:25:33;;;;;;;;;;;16.00;99.90;;;;;;5024520;28;19925;-80
2022/03/03 14:28:02;;;;;;;;;;;15.90;99.90;;;;;;5025551;28;19934;-81
2022/03/03 14:30:32;;;;;;;;;;;15.10;99.90;;;;;;5024956;28;19934;-81
2022/03/03 14:33:01;;;;;;;;;;;15.90;99.90;;;;;;5026943;28;19925;-84
2022/03/03 14:35:29;;;;;;;;;;;16.00;99.90;;;;;;5026437;28;19933;-84
2022/03/03 14:37:58;;;;;;;;;;;15.70;99.90;;;;;;5026301;28;19925;-83
2022/03/03 14:40:27;;;;;;;;;;;15.60;99.90;;;;;;5026641;28;19932;-84
2022/03/03 14:42:56;;;;;;;;;;;17.10;99.90;;;;;;5024823;28;20009;-86
2022/03/03 14:45:24;;;;;;;;;;;15.30;99.90;;;;;;5026026;28;19929;-83
2022/03/03 14:47:56;;;;;;;;;;;15.20;99.90;;;;;;5027235;28;19929;-85
2022/03/03 14:50:26;;;;;;;;;;;15.00;99.90;;;;;;5019152;28;19930;-84
2022/03/03 14:52:55;;;;;;;;;;;14.80;99.90;;;;;;5025046;28;20262;-83
2022/03/03 14:55:23;;;;;;;;;;;14.90;99.90;;;;;;5029347;28;19925;-83
2022/03/03 14:57:53;;;;;;;;;;;14.80;99.90;;;;;;5028100;28;19929;-84
2022/03/03 15:00:21;;;;;;;;;;;14.80;99.90;;;;;;5032692;28;20382;-82
2022/03/03 15:02:51;;;;;;;;;;;14.60;99.90;;;;;;5025739;28;19925;-83
2022/03/03 15:05:19;;;;;;;;;;;14.50;99.90;;;;;;5026790;28;19937;-82
2022/03/03 15:07:47;;;;;;;;;;;13.40;99.90;;;;;;5026488;28;19936;-83
2022/03/03 15:10:18;;;;;;;;;;;14.40;99.90;;;;;;5025070;28;19936;-83
2022/03/03 15:12:52;;;;;;;;;;;14.30;99.90;;;;;;5023709;28;19944;-83
2022/03/03 15:15:39;;;;;;;;;;;14.50;99.90;;;;;;4998434;28;19929;-84
2022/03/03 15:18:18;;;;;;;;;;;14.10;99.90;;;;;;5020269;28;19926;-84
2022/03/03 15:20:58;;;;;;;;;;;14.30;99.90;;;;;;5023531;28;19930;-83
2022/03/03 15:23:29;;;;;;;;;;;14.20;99.90;;;;;;5025270;28;19936;-82
2022/03/03 15:26:01;;;;;;;;;;;14.20;99.90;;;;;;5022471;28;19940;-82
2022/03/03 15:28:33;;;;;;;;;;;14.30;99.90;;;;;;5024242;28;19930;-84
2022/03/03 15:31:19;;;;;;;;;;;14.50;99.90;;;;;;5031254;28;19940;-89
2022/03/03 15:36:47;;;;;;;;;;;15.00;99.90;;;;;;5008730;28;19932;-85
2022/03/03 15:39:19;;;;;;;;;;;15.00;99.90;;;;;;5002493;28;19934;-84
2022/03/03 15:41:57;;;;;;;;;;;15.00;99.90;;;;;;5022525;28;19925;-84
2022/03/03 15:44:28;;;;;;;;;;;15.10;99.90;;;;;;5022067;28;19925;-83
2022/03/03 15:47:05;;;;;;;;;;;15.30;99.90;;;;;;5024225;28;19930;-83
2022/03/03 15:49:44;;;;;;;;;;;15.50;99.90;;;;;;5024819;28;19925;-83
2022/03/03 15:52:15;;;;;;;;;;;15.30;99.90;;;;;;5006045;28;19933;-83
2022/03/03 15:54:45;;;;;;;;;;;15.90;99.90;;;;;;5020410;28;19933;-83
2022/03/03 15:57:14;;;;;;;;;;;15.90;99.90;;;;;;5005644;28;19930;-83
2022/03/03 15:59:45;;;;;;;;;;;15.90;99.90;;;;;;5020886;28;19925;-83
2022/03/03 16:02:13;;;;;;;;;;;15.70;99.90;;;;;;5019803;28;19940;-83
2022/03/03 16:04:46;;;;;;;;;;;15.60;99.90;;;;;;5021142;28;19926;-84
2022/03/03 16:07:19;;;;;;;;;;;14.70;99.90;;;;;;5004911;28;19953;-83
2022/03/03 16:09:55;;;;;;;;;;;14.60;99.90;;;;;;5020921;28;19925;-83
2022/03/03 16:12:23;;;;;;;;;;;15.10;99.90;;;;;;5015064;28;19929;-83
2022/03/03 16:14:55;;;;;;;;;;;14.90;99.90;;;;;;5020525;28;19925;-83
2022/03/03 16:17:39;;;;;;;;;;;14.60;99.90;;;;;;5007209;28;20016;-83
2022/03/03 16:20:10;;;;;;;;;;;14.40;99.90;;;;;;5020226;28;20376;-83
2022/03/03 16:22:39;;;;;;;;;;;14.40;99.90;;;;;;5021565;28;19940;-84
2022/03/03 16:25:16;;;;;;;;;;;14.20;99.90;;;;;;5018983;28;19934;-84
2022/03/03 16:28:01;;;;;;;;;;;14.10;99.90;;;;;;5019822;28;19930;-82
2022/03/03 16:30:37;;;;;;;;;;;13.90;99.90;;;;;;5037341;28;19925;-84
2022/03/03 16:33:13;;;;;;;;;;;13.60;99.90;;;;;;5021658;28;19933;-84
2022/03/03 16:36:19;;;;;;;;;;;13.30;99.90;;;;;;5006264;28;20314;-85
2022/03/03 16:38:49;;;;;;;;;;;13.70;99.90;;;;;;5000023;28;19933;-83
2022/03/03 16:41:19;;;;;;;;;;;13.60;99.90;;;;;;5022376;28;19940;-83
2022/03/03 16:43:52;;;;;;;;;;;13.50;99.90;;;;;;5024165;28;19913;-83
2022/03/03 16:46:21;;;;;;;;;;;13.40;99.90;;;;;;5023164;28;19933;-84
2022/03/03 16:48:49;;;;;;;;;;;13.40;99.90;;;;;;5022733;28;19925;-84
2022/03/03 16:51:18;;;;;;;;;;;13.40;99.90;;;;;;5023689;28;20461;-83
2022/03/03 16:53:49;;;;;;;;;;;13.50;99.90;;;;;;5023354;28;19933;-84
2022/03/03 16:56:21;;;;;;;;;;;13.30;99.90;;;;;;5021880;28;19930;-84
2022/03/03 16:58:51;;;;;;;;;;;13.30;99.90;;;;;;5022917;28;19937;-83
2022/03/03 17:01:25;;;;;;;;;;;13.20;99.90;;;;;;5023108;28;19925;-83
2022/03/03 17:04:03;;;;;;;;;;;12.50;99.90;;;;;;5021805;28;19936;-84
2022/03/03 17:06:35;;;;;;;;;;;13.10;99.90;;;;;;5006358;28;20515;-82
2022/03/03 17:09:13;;;;;;;;;;;13.00;99.90;;;;;;5005798;28;19940;-83
2022/03/03 17:11:48;;;;;;;;;;;12.90;99.90;;;;;;5020730;28;19929;-83
2022/03/03 17:14:19;;;;;;;;;;;12.90;99.90;;;;;;5022690;28;19934;-83
2022/03/03 17:16:47;;;;;;;;;;;12.70;99.90;;;;;;5020068;28;19925;-81
2022/03/03 17:19:19;;;;;;;;;;;11.00;99.90;;;;;;5018636;28;19941;-82
2022/03/03 17:21:47;;;;;;;;;;;12.60;99.90;;;;;;5016805;28;20209;-82
2022/03/03 17:24:20;;;;;;;;;;;12.00;99.90;;;;;;5019316;28;20004;-81
2022/03/03 17:26:49;;;;;;;;;;;12.40;99.90;;;;;;5003300;28;19929;-81
2022/03/03 17:29:18;;;;;;;;;;;12.40;99.90;;;;;;5016468;28;19949;-81
2022/03/03 17:31:46;;;;;;;;;;;12.30;99.90;;;;;;5020474;28;19926;-82
2022/03/03 17:34:16;;;;;;;;;;;12.50;99.90;;;;;;5021998;28;19930;-82
2022/03/03 17:36:47;;;;;;;;;;;12.20;99.90;;;;;;5021278;28;19930;-82
2022/03/03 17:39:16;;;;;;;;;;;12.10;99.90;;;;;;5022139;28;19925;-81
2022/03/03 17:41:50;;;;;;;;;;;12.10;99.90;;;;;;5005776;28;19936;-81
2022/03/03 17:44:26;;;;;;;;;;;13.50;99.90;;;;;;5021830;28;19925;-82
2022/03/03 17:46:56;;;;;;;;;;;12.20;99.90;;;;;;5024340;28;19929;-82
2022/03/03 17:49:27;;;;;;;;;;;12.00;99.90;;;;;;5022710;28;19925;-83
2022/03/03 17:51:55;;;;;;;;;;;12.00;99.90;;;;;;5021656;28;19930;-82
2022/03/03 17:54:24;;;;;;;;;;;12.00;99.90;;;;;;5020870;28;19929;-83